Time;durP1;ratioP1;P1;durP2;ratioP2;P2;SDS_P1;SDS_P2;PMS_P1;PMS_P2;Temp;Humidity;BMP_temperature;BMP_pressure;BME280_temperature;BME280_humidity;BME280_pressure;Samples;Min_cycle;Max_cycle;Signal;HPM_P1;HPM_P2
2023/04/06 00:00:33;;;;;;;;;45.00;36.67;;;;;10.72;53.25;101468.09;5119010;27;45388;-66
2023/04/06 00:02:58;;;;;;;;;48.33;36.33;;;;;10.73;53.11;101475.13;5119084;27;45321;-65
2023/04/06 00:05:24;;;;;;;;;42.00;37.33;;;;;10.65;53.14;101462.94;5119507;27;45383;-66
2023/04/06 00:07:50;;;;;;;;;42.00;34.67;;;;;10.71;52.93;101468.13;5118961;27;46244;-66
2023/04/06 00:10:16;;;;;;;;;35.33;31.67;;;;;10.74;52.71;101482.13;5118956;27;45429;-66
2023/04/06 00:12:42;;;;;;;;;42.00;35.33;;;;;10.65;52.72;101457.66;5118937;27;45393;-66
2023/04/06 00:15:08;;;;;;;;;43.00;32.00;;;;;10.71;52.59;101465.50;5119061;27;45482;-65
2023/04/06 00:17:34;;;;;;;;;43.67;35.33;;;;;10.66;52.54;101455.03;5118679;27;46527;-66
2023/04/06 00:19:59;;;;;;;;;38.33;32.33;;;;;10.67;52.58;101454.09;5118619;27;45270;-66
2023/04/06 00:22:24;;;;;;;;;45.00;34.00;;;;;10.63;52.48;101444.53;5118876;27;45307;-65
2023/04/06 00:24:50;;;;;;;;;41.00;33.00;;;;;10.67;52.38;101456.75;5119162;27;45240;-65
2023/04/06 00:27:15;;;;;;;;;36.00;32.67;;;;;10.67;52.03;101455.88;5118559;27;46704;-66
2023/04/06 00:29:41;;;;;;;;;41.00;33.00;;;;;10.67;52.02;101453.25;5118851;27;45291;-66
2023/04/06 00:32:06;;;;;;;;;37.67;32.33;;;;;10.61;51.84;101449.78;5118629;27;45267;-66
2023/04/06 00:34:31;;;;;;;;;35.00;29.67;;;;;10.62;51.40;101446.25;5118546;27;45326;-66
2023/04/06 00:36:57;;;;;;;;;37.33;32.00;;;;;10.53;52.09;101435.84;5118516;27;46476;-66
2023/04/06 00:39:22;;;;;;;;;42.00;31.67;;;;;10.55;51.89;101433.19;5118490;27;45358;-65
2023/04/06 00:41:51;;;;;;;;;33.00;26.67;;;;;10.61;51.84;101435.75;5118477;27;45511;-66
2023/04/06 00:44:16;;;;;;;;;34.67;29.33;;;;;10.62;51.89;101435.72;5118249;27;45344;-65
2023/04/06 00:46:42;;;;;;;;;30.00;27.33;;;;;10.60;51.64;101434.00;5118279;27;45808;-66
2023/04/06 00:49:07;;;;;;;;;32.33;30.00;;;;;10.55;51.26;101425.28;5118538;27;45253;-65
2023/04/06 00:51:32;;;;;;;;;34.33;31.00;;;;;10.47;51.72;101411.34;5118368;27;45299;-65
2023/04/06 00:53:58;;;;;;;;;32.67;31.33;;;;;10.51;51.77;101420.94;5118657;27;45515;-66
2023/04/06 00:56:23;;;;;;;;;35.33;32.00;;;;;10.53;52.10;101424.44;5118223;27;46404;-65
2023/04/06 00:58:49;;;;;;;;;29.67;24.33;;;;;10.41;51.90;101402.63;5118362;27;45263;-65
2023/04/06 01:01:15;;;;;;;;;34.67;28.00;;;;;10.52;51.62;101420.94;5118447;27;45248;-66
2023/04/06 01:03:42;;;;;;;;;36.00;30.33;;;;;10.53;51.96;101422.69;5118407;27;45474;-66
2023/04/06 01:06:07;;;;;;;;;32.00;29.33;;;;;10.39;51.92;101404.41;5118153;27;46658;-66
2023/04/06 01:08:33;;;;;;;;;32.00;27.00;;;;;10.39;51.97;101417.56;5117960;27;45334;-66
2023/04/06 01:11:00;;;;;;;;;32.00;30.00;;;;;10.40;52.04;101416.69;5118512;27;45792;-66
2023/04/06 01:13:27;;;;;;;;;32.67;25.67;;;;;10.40;52.09;101416.69;5118219;27;45548;-66
2023/04/06 01:15:52;;;;;;;;;35.00;29.00;;;;;10.42;52.07;101416.66;5117802;27;45889;-66
2023/04/06 01:18:18;;;;;;;;;36.67;26.00;;;;;10.39;51.99;101421.97;5118069;27;45328;-66
2023/04/06 01:20:43;;;;;;;;;34.33;27.00;;;;;10.37;52.40;101421.09;5117868;27;45459;-66
2023/04/06 01:23:09;;;;;;;;;40.33;33.67;;;;;10.37;52.27;101410.56;5118255;27;45452;-66
2023/04/06 01:25:34;;;;;;;;;26.00;20.00;;;;;10.36;52.08;101396.53;5118067;27;46377;-66
2023/04/06 01:28:00;;;;;;;;;34.00;29.67;;;;;10.32;52.15;101397.44;5117750;27;45450;-66
2023/04/06 01:30:26;;;;;;;;;38.33;29.67;;;;;10.27;52.30;101394.00;5117970;27;45207;-65
2023/04/06 01:32:52;;;;;;;;;29.67;25.33;;;;;10.30;52.31;101393.94;5118138;27;46034;-64
2023/04/06 01:35:19;;;;;;;;;33.33;28.67;;;;;10.37;51.96;101402.66;5117567;27;46541;-64
2023/04/06 01:37:45;;;;;;;;;29.00;25.33;;;;;10.33;52.57;101393.91;5117896;27;45450;-65
2023/04/06 01:40:11;;;;;;;;;39.67;30.33;;;;;10.25;52.46;101386.13;5117660;27;45994;-65
2023/04/06 01:42:36;;;;;;;;;33.00;27.00;;;;;10.32;52.78;101400.06;5118027;27;45276;-64
2023/04/06 01:45:02;;;;;;;;;31.00;26.00;;;;;10.24;53.24;101383.50;5117486;27;45432;-65
2023/04/06 01:47:27;;;;;;;;;28.33;26.00;;;;;10.27;52.96;101386.09;5121216;27;45251;-65
2023/04/06 01:49:53;;;;;;;;;33.00;25.00;;;;;10.26;52.61;101377.31;5121135;27;45290;-64
2023/04/06 01:52:18;;;;;;;;;37.00;31.00;;;;;10.22;53.81;101370.34;5121470;27;45371;-65
2023/04/06 01:54:44;;;;;;;;;28.67;20.33;;;;;10.19;54.09;101375.63;5120946;27;46003;-65
2023/04/06 01:57:10;;;;;;;;;31.67;27.00;;;;;10.27;54.06;101388.72;5121008;27;45322;-64
2023/04/06 01:59:35;;;;;;;;;32.33;27.33;;;;;10.25;54.83;101379.97;5121233;27;45281;-65
2023/04/06 02:02:01;;;;;;;;;32.33;26.67;;;;;10.24;54.82;101379.09;5121097;27;45222;-65
2023/04/06 02:04:26;;;;;;;;;31.00;25.67;;;;;10.15;54.59;101352.00;5120873;27;46141;-65
2023/04/06 02:06:51;;;;;;;;;30.67;26.33;;;;;10.24;54.22;101362.44;5121137;27;45162;-65
2023/04/06 02:09:17;;;;;;;;;28.33;23.67;;;;;10.19;55.23;101361.63;5120826;27;45488;-64
2023/04/06 02:11:42;;;;;;;;;28.00;27.67;;;;;10.22;55.51;101361.56;5121343;27;45229;-65
2023/04/06 02:14:07;;;;;;;;;29.33;27.33;;;;;10.18;55.47;101354.59;5120930;27;46503;-65
2023/04/06 02:16:33;;;;;;;;;26.00;23.67;;;;;10.21;55.74;101350.19;5120692;27;45485;-64
2023/04/06 02:18:58;;;;;;;;;33.00;26.67;;;;;10.14;55.67;101339.72;5120664;27;45854;-64
2023/04/06 02:21:24;;;;;;;;;34.00;26.67;;;;;10.19;55.34;101344.06;5120613;27;45412;-64
2023/04/06 02:23:49;;;;;;;;;31.33;28.33;;;;;10.28;55.60;101358.88;5120610;27;45552;-64
2023/04/06 02:26:15;;;;;;;;;30.00;27.00;;;;;10.26;55.63;101344.88;5120597;27;45746;-65
2023/04/06 02:28:40;;;;;;;;;22.67;21.00;;;;;10.25;55.41;101346.63;5120740;27;45370;-64
2023/04/06 02:31:07;;;;;;;;;32.67;26.00;;;;;10.32;55.14;101360.56;5120918;27;45389;-64
2023/04/06 02:33:33;;;;;;;;;29.33;21.33;;;;;10.32;55.10;101359.72;5120214;27;45310;-65
2023/04/06 02:35:58;;;;;;;;;32.33;24.00;;;;;10.21;54.72;101342.28;5120459;27;45224;-65
2023/04/06 02:38:24;;;;;;;;;26.00;23.67;;;;;10.30;54.42;101359.75;5120805;27;45411;-64
2023/04/06 02:40:49;;;;;;;;;28.00;26.33;;;;;10.29;54.41;101361.47;5120456;27;45398;-64
2023/04/06 02:43:16;;;;;;;;;39.33;27.67;;;;;10.25;54.45;101349.28;5120357;27;46328;-65
2023/04/06 02:45:42;;;;;;;;;35.67;30.00;;;;;10.24;54.00;101349.28;5120242;27;45366;-65
2023/04/06 02:48:07;;;;;;;;;28.67;24.33;;;;;9.97;53.86;101303.97;5120355;27;45168;-65
2023/04/06 02:50:32;;;;;;;;;33.33;24.33;;;;;10.01;54.20;101305.69;5120719;27;45321;-65
2023/04/06 02:52:58;;;;;;;;;26.33;24.00;;;;;10.17;53.87;101340.59;5120193;27;45387;-65
2023/04/06 02:55:23;;;;;;;;;30.00;26.00;;;;;9.96;53.87;101301.34;5120158;27;45317;-65
2023/04/06 02:57:49;;;;;;;;;32.00;27.33;;;;;10.22;54.21;101351.94;5120042;27;45456;-65
2023/04/06 03:00:15;;;;;;;;;32.33;25.33;;;;;10.23;54.04;101350.16;5120261;27;45472;-65
2023/04/06 03:02:40;;;;;;;;;37.00;30.67;;;;;10.10;53.95;101331.88;5120091;27;46351;-65
2023/04/06 03:05:07;;;;;;;;;37.00;28.33;;;;;10.20;53.98;101351.06;5119961;27;45531;-65
2023/04/06 03:07:32;;;;;;;;;36.67;32.00;;;;;10.18;54.06;101341.44;5120253;27;45385;-65
2023/04/06 03:09:57;;;;;;;;;33.33;27.00;;;;;10.11;54.34;101332.75;5120128;27;45396;-64
2023/04/06 03:12:23;;;;;;;;;30.33;27.33;;;;;10.04;54.47;101310.91;5119890;27;46424;-64
2023/04/06 03:14:48;;;;;;;;;35.00;27.67;;;;;10.02;54.93;101317.06;5120106;27;45432;-65
2023/04/06 03:17:13;;;;;;;;;28.33;26.33;;;;;10.20;55.56;101339.69;5119977;27;45273;-64
2023/04/06 03:19:39;;;;;;;;;30.00;27.00;;;;;10.20;56.14;101343.16;5120045;27;45348;-65
2023/04/06 03:22:04;;;;;;;;;32.00;28.33;;;;;10.06;56.79;101326.66;5119595;27;46867;-65
2023/04/06 03:24:30;;;;;;;;;32.00;29.33;;;;;10.15;58.82;101339.75;5119767;27;45260;-64
2023/04/06 03:26:56;;;;;;;;;37.67;31.00;;;;;10.12;59.64;101331.84;5119926;27;45422;-64
2023/04/06 03:29:21;;;;;;;;;39.00;32.67;;;;;10.07;59.54;101326.66;5119911;27;45380;-64
2023/04/06 03:31:47;;;;;;;;;30.33;27.33;;;;;10.13;61.16;101335.38;5119459;27;47443;-64
2023/04/06 03:34:12;;;;;;;;;29.50;25.00;;;;;10.07;61.26;101321.38;5119472;27;45307;-65
2023/04/06 03:36:37;;;;;;;;;26.00;26.00;;;;;10.05;60.38;101323.19;5119762;27;45182;-65
2023/04/06 03:39:03;;;;;;;;;35.33;30.00;;;;;10.09;62.68;101327.53;5119700;27;45380;-65
2023/04/06 03:41:28;;;;;;;;;30.00;23.67;;;;;10.02;62.25;101322.31;5119177;27;45487;-65
2023/04/06 03:43:54;;;;;;;;;32.00;26.00;;;;;9.89;63.98;101298.81;5119576;27;45367;-65
2023/04/06 03:46:19;;;;;;;;;34.33;29.67;;;;;9.97;63.30;101321.53;5119498;27;45419;-65
2023/04/06 03:48:48;;;;;;;;;41.33;31.67;;;;;9.94;65.22;101312.75;5119728;27;45400;-65
2023/04/06 03:51:13;;;;;;;;;26.00;22.00;;;;;9.94;64.48;101317.16;5119367;27;45477;-65
2023/04/06 03:53:39;;;;;;;;;34.67;29.33;;;;;9.98;64.77;101321.50;5119235;27;45467;-65
2023/04/06 03:56:05;;;;;;;;;25.33;25.00;;;;;9.90;65.98;101311.06;5119560;27;45334;-64
2023/04/06 03:58:30;;;;;;;;;29.00;25.33;;;;;9.71;66.12;101286.69;5119503;27;45232;-64
2023/04/06 04:00:56;;;;;;;;;26.67;21.33;;;;;9.88;64.87;101312.84;5119098;27;46058;-64
2023/04/06 04:03:23;;;;;;;;;33.33;27.67;;;;;9.90;66.14;101320.69;5119093;27;45375;-64
2023/04/06 04:05:49;;;;;;;;;25.67;23.33;;;;;9.86;67.20;101305.84;5119293;27;45350;-64
2023/04/06 04:08:15;;;;;;;;;31.67;27.00;;;;;9.87;69.11;101310.22;5115780;27;45488;-64
2023/04/06 04:10:40;;;;;;;;;26.00;22.00;;;;;9.89;69.08;101311.94;5098218;27;45369;-64
2023/04/06 04:13:05;;;;;;;;;33.00;25.67;;;;;9.86;67.82;101303.22;5098401;27;45370;-64
2023/04/06 04:15:31;;;;;;;;;30.67;24.67;;;;;9.74;69.52;101294.59;5098627;27;45739;-64
2023/04/06 04:17:56;;;;;;;;;29.00;22.00;;;;;9.72;69.98;101298.13;5098668;27;45437;-64
2023/04/06 04:20:22;;;;;;;;;26.33;25.00;;;;;9.70;71.87;101294.59;5098250;27;45614;-64
2023/04/06 04:22:47;;;;;;;;;36.33;26.00;;;;;9.78;71.90;101294.53;5098107;27;45427;-64
2023/04/06 04:25:13;;;;;;;;;22.67;17.67;;;;;9.76;71.95;101292.81;5098540;27;45457;-64
2023/04/06 04:27:38;;;;;;;;;25.00;20.00;;;;;9.64;72.58;101261.34;5098543;27;45270;-64
2023/04/06 04:30:05;;;;;;;;;24.00;17.67;;;;;9.71;72.88;101270.06;5098212;27;45462;-64
2023/04/06 04:32:31;;;;;;;;;18.67;15.33;;;;;9.58;71.98;101240.41;5098165;27;45206;-64
2023/04/06 04:34:56;;;;;;;;;24.33;16.33;;;;;9.82;72.80;101275.22;5097951;27;45477;-64
2023/04/06 04:37:21;;;;;;;;;20.33;18.67;;;;;9.71;72.84;101263.03;5098254;27;45233;-64
2023/04/06 04:39:47;;;;;;;;;26.00;16.67;;;;;9.84;72.32;101276.06;5097875;27;46739;-65
2023/04/06 04:42:14;;;;;;;;;20.33;15.33;;;;;9.86;71.80;101285.69;5097937;27;45317;-64
2023/04/06 04:44:39;;;;;;;;;22.33;17.67;;;;;9.72;72.29;101259.53;5098334;27;45377;-64
2023/04/06 04:47:05;;;;;;;;;17.00;15.33;;;;;9.72;71.95;101256.91;5098016;27;45354;-64
2023/04/06 04:49:30;;;;;;;;;28.00;20.00;;;;;9.80;72.59;101267.31;5097602;27;46992;-64
2023/04/06 04:51:56;;;;;;;;;20.33;17.00;;;;;9.86;72.36;101272.53;5097936;27;45418;-64
2023/04/06 04:54:21;;;;;;;;;17.67;15.67;;;;;9.80;70.41;101262.06;5098064;27;45211;-64
2023/04/06 04:56:46;;;;;;;;;22.67;18.00;;;;;9.84;72.56;101268.19;5098199;27;45454;-64
2023/04/06 04:59:12;;;;;;;;;22.00;15.00;;;;;9.80;74.02;101266.47;5097520;27;46226;-64
2023/04/06 05:01:37;;;;;;;;;18.67;16.67;;;;;9.82;73.92;101273.44;5097813;27;45462;-64
2023/04/06 05:04:03;;;;;;;;;17.00;15.33;;;;;9.70;73.19;101255.16;5097798;27;45575;-64
2023/04/06 05:06:28;;;;;;;;;12.33;12.33;;;;;9.80;73.46;101262.06;5098134;27;45438;-64
2023/04/06 05:08:54;;;;;;;;;17.00;14.00;;;;;9.76;71.63;101258.63;5097613;27;46172;-64
2023/04/06 05:11:19;;;;;;;;;12.33;10.33;;;;;9.72;69.18;101256.03;5097669;27;45506;-64
2023/04/06 05:13:45;;;;;;;;;11.33;11.33;;;;;9.75;71.61;101266.53;5097842;27;45321;-64
2023/04/06 05:16:10;;;;;;;;;12.33;9.00;;;;;9.78;71.93;101268.25;5097916;27;45621;-64
2023/04/06 05:18:36;;;;;;;;;12.33;11.00;;;;;9.70;73.49;101248.16;5097476;27;46369;-64
2023/04/06 05:21:02;;;;;;;;;16.00;11.33;;;;;9.72;73.23;101254.25;5099384;27;45155;-65
2023/04/06 05:23:27;;;;;;;;;13.00;13.00;;;;;9.80;73.86;101266.47;5101318;27;45596;-64
2023/04/06 05:25:52;;;;;;;;;12.67;11.67;;;;;9.73;74.15;101250.75;5101503;27;45138;-64
2023/04/06 05:28:18;;;;;;;;;17.67;13.33;;;;;9.73;72.81;101247.25;5101031;27;46595;-64
2023/04/06 05:30:45;;;;;;;;;18.67;12.00;;;;;9.81;74.16;101257.69;5100752;27;45442;-64
2023/04/06 05:33:11;;;;;;;;;10.00;9.00;;;;;9.56;70.18;101211.50;5101229;27;45322;-64
2023/04/06 05:35:36;;;;;;;;;10.00;6.33;;;;;9.76;72.04;101241.97;5101109;27;45499;-64
2023/04/06 05:38:02;;;;;;;;;10.33;10.33;;;;;9.78;70.92;101248.06;5100822;27;46030;-64
2023/04/06 05:40:27;;;;;;;;;14.00;14.00;;;;;9.79;71.75;101254.19;5100633;27;45334;-64
2023/04/06 05:42:53;;;;;;;;;19.67;14.67;;;;;9.79;73.07;101248.94;5100957;27;45266;-64
2023/04/06 05:45:20;;;;;;;;;15.33;15.00;;;;;9.79;73.01;101246.31;5100969;27;45385;-64
2023/04/06 05:47:46;;;;;;;;;13.33;13.33;;;;;9.71;71.72;101247.25;5100799;27;45268;-64
2023/04/06 05:50:12;;;;;;;;;14.67;12.00;;;;;9.74;71.44;101251.63;5100585;27;45368;-64
2023/04/06 05:52:38;;;;;;;;;15.67;14.00;;;;;9.69;72.54;101245.56;5100956;27;45299;-64
2023/04/06 05:55:04;;;;;;;;;12.33;12.33;;;;;9.67;72.03;101226.28;5100717;27;45608;-64
2023/04/06 05:57:30;;;;;;;;;14.00;12.00;;;;;9.74;73.81;101238.47;5100584;27;45426;-64
2023/04/06 05:59:55;;;;;;;;;18.00;15.00;;;;;9.78;73.45;101239.31;5100440;27;45347;-64
2023/04/06 06:02:21;;;;;;;;;27.00;23.67;;;;;9.75;73.85;101229.69;5100680;27;45968;-64
2023/04/06 06:04:47;;;;;;;;;16.00;13.00;;;;;9.82;71.14;101247.16;5100679;27;45346;-64
2023/04/06 06:07:12;;;;;;;;;13.67;11.67;;;;;9.71;73.60;101222.72;5100314;27;45616;-64
2023/04/06 06:09:38;;;;;;;;;15.33;14.00;;;;;9.78;73.24;101241.94;5100506;27;45414;-64
2023/04/06 06:12:03;;;;;;;;;17.67;14.00;;;;;9.76;72.52;101234.09;5100540;27;45304;-64
2023/04/06 06:14:29;;;;;;;;;14.00;13.67;;;;;9.68;72.12;101228.88;5103592;27;45454;-64
2023/04/06 06:16:54;;;;;;;;;15.67;13.67;;;;;9.72;72.72;101241.13;5120221;27;45587;-64
2023/04/06 06:19:20;;;;;;;;;16.33;14.67;;;;;9.72;71.62;101235.88;5120440;27;45313;-64
2023/04/06 06:21:45;;;;;;;;;19.67;17.33;;;;;9.43;73.54;101199.38;5121060;27;45271;-64
2023/04/06 06:24:11;;;;;;;;;26.67;23.67;;;;;9.62;74.26;101226.34;5120779;27;45392;-64
2023/04/06 06:26:37;;;;;;;;;16.00;15.00;;;;;9.67;73.24;101234.16;5120604;27;45689;-64
2023/04/06 06:29:04;;;;;;;;;16.33;16.33;;;;;9.74;71.76;101251.63;5120854;27;45468;-64
2023/04/06 06:31:30;;;;;;;;;21.33;18.33;;;;;9.68;72.08;101235.91;5120088;27;45268;-64
2023/04/06 06:33:55;;;;;;;;;22.33;16.00;;;;;9.65;75.24;101239.44;5120930;27;45380;-64
2023/04/06 06:36:21;;;;;;;;;18.00;14.67;;;;;9.75;74.69;101248.09;5120218;27;46142;-64
2023/04/06 06:38:46;;;;;;;;;17.67;16.33;;;;;9.73;74.48;101244.59;5120538;27;45390;-64
2023/04/06 06:41:12;;;;;;;;;20.33;17.33;;;;;9.73;75.29;101234.97;5120507;27;45267;-64
2023/04/06 06:43:37;;;;;;;;;17.67;17.33;;;;;9.55;71.46;101196.59;5119936;27;45570;-64
2023/04/06 06:46:04;;;;;;;;;20.00;15.67;;;;;9.73;72.70;101234.97;5119358;27;45434;-65
2023/04/06 06:48:30;;;;;;;;;25.33;16.33;;;;;9.64;74.36;101227.19;5119054;27;45484;-65
2023/04/06 06:50:56;;;;;;;;;28.67;25.00;;;;;9.68;74.86;101239.41;5119597;27;45465;-65
2023/04/06 06:53:21;;;;;;;;;25.33;19.67;;;;;9.69;74.97;101233.28;5117105;27;45441;-65
2023/04/06 06:55:48;;;;;;;;;22.67;17.33;;;;;9.68;73.51;101230.66;5119614;27;46422;-65
2023/04/06 06:58:14;;;;;;;;;22.00;19.67;;;;;9.70;76.23;101234.13;5119725;27;45303;-65
2023/04/06 07:00:40;;;;;;;;;19.33;19.33;;;;;9.67;76.11;101216.66;5119666;27;45491;-65
2023/04/06 07:03:05;;;;;;;;;21.00;20.67;;;;;9.76;75.53;101232.31;5118041;27;45996;-65
2023/04/06 07:05:31;;;;;;;;;24.33;20.33;;;;;9.73;74.77;101221.84;5119108;27;46778;-65
2023/04/06 07:07:56;;;;;;;;;22.67;19.67;;;;;9.72;75.20;101216.59;5119131;27;45365;-65
2023/04/06 07:10:22;;;;;;;;;23.00;20.33;;;;;9.70;74.16;101207.84;5120147;27;45429;-65
2023/04/06 07:12:47;;;;;;;;;27.67;23.67;;;;;9.78;75.50;101224.41;5111412;27;45508;-63
2023/04/06 07:15:13;;;;;;;;;18.67;17.00;;;;;9.59;76.35;101195.69;5098456;27;46273;-63
2023/04/06 07:17:41;;;;;;;;;19.67;19.67;;;;;9.65;75.53;101202.63;5099128;27;45268;-65
2023/04/06 07:20:06;;;;;;;;;24.00;19.33;;;;;9.70;76.60;101211.34;5098605;27;45418;-65
2023/04/06 07:22:32;;;;;;;;;21.00;20.33;;;;;9.62;76.17;101201.81;5099040;27;45253;-65
2023/04/06 07:24:57;;;;;;;;;23.33;18.00;;;;;9.68;76.95;101213.13;5099033;27;46596;-65
2023/04/06 07:27:22;;;;;;;;;26.33;24.00;;;;;9.60;77.07;101191.31;5098296;27;45401;-65
2023/04/06 07:29:48;;;;;;;;;21.67;18.33;;;;;9.53;75.67;101192.28;5098936;27;45636;-64
2023/04/06 07:32:13;;;;;;;;;24.33;21.67;;;;;9.50;76.84;101187.06;5098930;27;45364;-65
2023/04/06 07:34:39;;;;;;;;;27.33;25.00;;;;;9.55;77.36;101195.75;5098855;27;45697;-65
2023/04/06 07:37:04;;;;;;;;;32.00;25.00;;;;;9.59;78.91;101198.31;5098804;27;45407;-65
2023/04/06 07:39:30;;;;;;;;;31.67;24.67;;;;;9.64;77.10;101213.16;5098351;27;45943;-65
2023/04/06 07:41:55;;;;;;;;;26.33;22.67;;;;;9.58;79.53;101206.22;5098877;27;45384;-65
2023/04/06 07:44:20;;;;;;;;;31.33;23.00;;;;;9.47;79.46;101190.59;5097464;27;47261;-65
2023/04/06 07:46:46;;;;;;;;;31.00;24.67;;;;;9.54;78.87;101197.50;5098825;27;45435;-65
2023/04/06 07:49:12;;;;;;;;;29.67;25.67;;;;;9.56;79.71;101186.97;5100452;27;45301;-65
2023/04/06 07:51:39;;;;;;;;;31.33;25.33;;;;;9.66;78.16;101196.50;5115178;27;45254;-65
2023/04/06 07:54:05;;;;;;;;;33.33;30.33;;;;;9.77;78.45;101209.50;5118735;27;45283;-65
2023/04/06 07:56:30;;;;;;;;;29.67;26.00;;;;;9.69;80.80;101185.09;5118969;27;45464;-65
2023/04/06 07:58:56;;;;;;;;;26.33;21.33;;;;;9.79;78.55;101188.44;5119434;27;45341;-65
2023/04/06 08:01:22;;;;;;;;;31.33;24.67;;;;;9.81;78.56;101194.56;5119271;27;45495;-65
2023/04/06 08:03:48;;;;;;;;;36.33;29.67;;;;;9.84;82.80;101205.91;5119016;27;45235;-65
2023/04/06 08:06:14;;;;;;;;;31.67;28.33;;;;;9.86;82.29;101201.53;5117585;27;45851;-66
2023/04/06 08:08:40;;;;;;;;;29.33;28.00;;;;;9.82;80.38;101193.69;5100198;27;45367;-66
2023/04/06 08:11:05;;;;;;;;;26.33;24.33;;;;;9.74;82.80;101184.13;5098458;27;45516;-66
2023/04/06 08:13:30;;;;;;;;;33.67;29.67;;;;;9.75;82.26;101185.84;5098235;27;46652;-66
2023/04/06 08:15:56;;;;;;;;;34.33;29.67;;;;;9.90;79.52;101197.97;5098200;27;45390;-66
2023/04/06 08:18:22;;;;;;;;;37.00;31.33;;;;;9.73;82.10;101178.88;5098268;27;45407;-66
2023/04/06 08:20:48;;;;;;;;;42.00;33.33;;;;;9.81;82.13;101187.53;5098162;27;45362;-65
2023/04/06 08:23:14;;;;;;;;;32.00;30.33;;;;;9.94;79.96;101188.25;5098039;27;46287;-65
2023/04/06 08:25:39;;;;;;;;;35.00;31.67;;;;;9.89;80.48;101197.97;5097970;27;45310;-65
2023/04/06 08:28:05;;;;;;;;;43.00;35.00;;;;;9.80;82.40;101192.81;5098109;27;45802;-65
2023/04/06 08:30:30;;;;;;;;;34.33;30.33;;;;;9.76;81.39;101187.59;5098283;27;45200;-65
2023/04/06 08:32:56;;;;;;;;;42.67;33.33;;;;;9.72;82.21;101192.94;5097925;27;46093;-65
2023/04/06 08:35:21;;;;;;;;;38.67;31.00;;;;;9.69;82.54;101182.44;5097865;27;45258;-65
2023/04/06 08:37:47;;;;;;;;;41.33;33.33;;;;;9.64;84.37;101195.63;5097894;27;45811;-65
2023/04/06 08:40:13;;;;;;;;;38.67;34.33;;;;;9.70;84.14;101195.56;5097889;27;45604;-65
2023/04/06 08:42:47;;;;;;;;;32.33;27.33;;;;;9.78;83.20;101179.69;5097751;27;46713;-65
2023/04/06 08:45:15;;;;;;;;;47.00;33.67;;;;;9.84;86.81;101189.28;5097708;27;45262;-65
2023/04/06 08:47:42;;;;;;;;;37.00;30.33;;;;;9.83;83.98;101170.00;5097867;27;45373;-65
2023/04/06 08:50:08;;;;;;;;;39.00;35.00;;;;;9.97;84.47;101180.31;5097880;27;45356;-65
2023/04/06 08:52:33;;;;;;;;;28.67;25.67;;;;;9.99;82.49;101181.19;5097302;27;46626;-65
2023/04/06 08:54:59;;;;;;;;;49.33;37.33;;;;;10.01;84.14;101183.81;5099540;27;45320;-65
2023/04/06 08:57:26;;;;;;;;;38.67;32.67;;;;;10.07;82.85;101176.69;5101574;27;45695;-65
2023/04/06 08:59:53;;;;;;;;;41.67;32.33;;;;;10.05;82.88;101180.22;5101559;27;45435;-65
2023/04/06 09:02:20;;;;;;;;;42.33;34.00;;;;;9.96;84.02;101175.94;5101220;27;46152;-65
2023/04/06 09:04:47;;;;;;;;;36.00;33.00;;;;;10.01;84.52;101184.66;5100960;27;45410;-65
2023/04/06 09:07:14;;;;;;;;;48.33;35.33;;;;;9.91;87.78;101167.25;5101297;27;45450;-65
2023/04/06 09:09:43;;;;;;;;;40.67;33.67;;;;;9.99;86.89;101167.16;5101403;27;45566;-65
2023/04/06 09:12:12;;;;;;;;;37.00;32.33;;;;;10.12;84.60;101184.50;5100949;27;46162;-65
2023/04/06 09:14:38;;;;;;;;;34.67;30.00;;;;;10.03;86.36;101161.81;5100939;27;45418;-65
2023/04/06 09:17:05;;;;;;;;;41.67;32.00;;;;;10.09;89.45;101174.03;5100987;27;45335;-65
2023/04/06 09:19:31;;;;;;;;;45.67;34.33;;;;;10.11;88.87;101181.00;5101090;27;45477;-65
2023/04/06 09:22:09;;;;;;;;;35.00;29.00;;;;;10.18;88.49;101191.44;5100634;27;45456;-65
2023/04/06 09:24:45;;;;;;;;;34.67;30.67;;;;;10.09;85.76;101171.38;5100695;27;45438;-65
2023/04/06 09:27:11;;;;;;;;;32.67;28.67;;;;;10.20;86.13;101182.63;5100967;27;45328;-65
2023/04/06 09:29:37;;;;;;;;;38.33;34.67;;;;;10.09;88.67;101169.66;5100911;27;45289;-65
2023/04/06 09:32:06;;;;;;;;;37.00;29.33;;;;;10.18;86.41;101178.28;5100735;27;45470;-65
2023/04/06 09:34:33;;;;;;;;;28.00;26.00;;;;;10.17;87.98;101177.44;5100419;27;45310;-65
2023/04/06 09:36:58;;;;;;;;;32.67;28.00;;;;;10.04;86.92;101153.03;5100724;27;45293;-65
2023/04/06 09:39:24;;;;;;;;;27.33;26.33;;;;;10.14;87.57;101173.94;5100667;27;45320;-65
2023/04/06 09:41:54;;;;;;;;;32.00;26.33;;;;;10.08;87.05;101167.91;5117509;27;46199;-65
2023/04/06 09:44:20;;;;;;;;;25.00;25.00;;;;;10.09;89.01;101171.38;5121143;27;45267;-65
2023/04/06 09:46:46;;;;;;;;;24.67;21.00;;;;;10.13;86.95;101180.13;5119748;27;45247;-66
2023/04/06 09:49:13;;;;;;;;;26.00;24.00;;;;;10.08;87.75;101173.16;5121264;27;45335;-65
2023/04/06 09:51:46;;;;;;;;;27.33;23.33;;;;;10.05;88.94;101170.56;5120694;27;45424;-65
2023/04/06 09:54:18;;;;;;;;;35.33;26.00;;;;;10.03;88.30;101153.94;5120927;27;45352;-65
2023/04/06 09:56:50;;;;;;;;;25.00;24.67;;;;;10.08;89.71;101162.63;5121090;27;45341;-65
2023/04/06 09:59:36;;;;;;;;;30.67;28.00;;;;;10.09;89.02;101158.22;5121386;27;45321;-65
2023/04/06 10:02:05;;;;;;;;;21.33;21.00;;;;;10.18;88.27;101163.38;5121024;27;46090;-65
2023/04/06 10:04:43;;;;;;;;;21.67;19.67;;;;;10.23;88.38;101164.16;5121113;27;45228;-65
2023/04/06 10:07:11;;;;;;;;;24.67;22.67;;;;;10.26;87.87;101158.00;5119672;27;45369;-65
2023/04/06 10:09:37;;;;;;;;;27.00;25.33;;;;;10.17;87.29;101145.00;5121160;27;45414;-65
2023/04/06 10:12:04;;;;;;;;;27.33;19.33;;;;;10.19;88.50;101149.31;5120791;27;45291;-64
2023/04/06 10:14:33;;;;;;;;;24.33;23.00;;;;;10.24;88.13;101155.41;5120834;27;45453;-65
2023/04/06 10:17:00;;;;;;;;;27.67;25.33;;;;;10.29;87.86;101161.44;5120873;27;45338;-65
2023/04/06 10:19:34;;;;;;;;;26.00;23.50;;;;;10.32;88.42;101159.69;5120949;27;45350;-65
2023/04/06 10:22:02;;;;;;;;;25.67;19.33;;;;;10.27;88.11;101147.44;5120430;27;47495;-65
2023/04/06 10:24:28;;;;;;;;;27.00;20.33;;;;;10.40;87.24;101163.09;5120761;27;45334;-65
2023/04/06 10:26:58;;;;;;;;;22.33;20.67;;;;;10.41;88.06;101160.44;5120750;27;45338;-65
2023/04/06 10:29:24;;;;;;;;;22.33;20.00;;;;;10.35;88.48;101144.72;5121111;27;45306;-65
2023/04/06 10:31:49;;;;;;;;;19.00;17.00;;;;;10.40;87.73;101148.16;5120582;27;45499;-65
2023/04/06 10:34:15;;;;;;;;;26.00;20.67;;;;;10.42;89.62;101141.09;5120429;27;45554;-65
2023/04/06 10:36:40;;;;;;;;;29.00;21.00;;;;;10.50;89.45;101143.63;5120444;27;45370;-65
2023/04/06 10:39:06;;;;;;;;;20.67;18.33;;;;;10.56;87.72;101151.44;5120809;27;45471;-65
2023/04/06 10:41:41;;;;;;;;;26.67;21.67;;;;;10.50;88.78;101134.84;5119687;27;45397;-65
2023/04/06 10:44:07;;;;;;;;;23.33;20.33;;;;;10.62;87.32;101147.81;5120411;27;45320;-65
2023/04/06 10:46:33;;;;;;;;;19.33;19.33;;;;;10.62;88.56;101148.69;5120409;27;45534;-65
2023/04/06 10:49:11;;;;;;;;;22.00;17.33;;;;;10.59;87.79;101132.09;5120653;27;45272;-65
2023/04/06 10:51:38;;;;;;;;;22.67;19.00;;;;;10.65;88.18;101141.66;5120110;27;45576;-65
2023/04/06 10:54:05;;;;;;;;;25.00;19.67;;;;;10.40;88.42;101090.25;5120072;27;45377;-66
2023/04/06 10:56:34;;;;;;;;;20.00;19.00;;;;;10.66;88.75;101122.28;5120301;27;45462;-65
2023/04/06 10:58:59;;;;;;;;;22.67;18.00;;;;;10.65;90.31;101113.53;5120530;27;45155;-65
2023/04/06 11:01:27;;;;;;;;;21.33;19.67;;;;;10.82;88.68;101130.81;5119242;27;45993;-65
2023/04/06 11:03:56;;;;;;;;;25.00;21.67;;;;;10.91;88.88;101139.41;5118765;27;45484;-64
2023/04/06 11:06:23;;;;;;;;;20.33;17.67;;;;;10.98;90.79;101125.25;5119761;27;45397;-64
2023/04/06 11:08:49;;;;;;;;;19.67;16.33;;;;;11.05;90.93;101120.75;5119902;27;45385;-65